Time;durP1;ratioP1;P1;durP2;ratioP2;P2;SDS_P1;SDS_P2;PMS_P1;PMS_P2;Temp;Humidity;BMP_temperature;BMP_pressure;BME280_temperature;BME280_humidity;BME280_pressure;Samples;Min_cycle;Max_cycle;Signal;HPM_P1;HPM_P2
2023/10/24 00:02:08;;;;;;;16.83;16.10;;;13.40;1.00;;;;;;5092716;28;20562;-79
2023/10/24 00:04:36;;;;;;;16.93;16.20;;;13.50;1.00;;;;;;4537123;28;15073280;-79
2023/10/24 00:07:05;;;;;;;16.50;15.70;;;13.50;1.00;;;;;;5092345;28;20701;-80
2023/10/24 00:09:33;;;;;;;16.67;15.97;;;13.50;1.00;;;;;;5094771;28;20480;-79
2023/10/24 00:12:01;;;;;;;15.90;15.30;;;13.40;1.00;;;;;;5094491;28;20457;-80
2023/10/24 00:14:30;;;;;;;16.77;16.00;;;13.40;31.20;;;;;;5093085;28;20561;-79
2023/10/24 00:16:58;;;;;;;17.60;16.80;;;13.40;64.90;;;;;;5092276;28;20448;-79
2023/10/24 00:19:27;;;;;;;16.77;16.07;;;13.40;1.00;;;;;;5092151;28;21322;-79
2023/10/24 00:21:55;;;;;;;17.07;16.27;;;13.40;1.00;;;;;;5094764;28;20505;-80
2023/10/24 00:24:23;;;;;;;17.03;16.10;;;13.40;1.00;;;;;;5089464;28;20457;-80
2023/10/24 00:26:51;;;;;;;16.47;15.53;;;13.40;1.00;;;;;;5091943;28;20466;-80
2023/10/24 00:29:19;;;;;;;15.93;15.30;;;13.40;1.00;;;;;;5097466;28;20461;-80
2023/10/24 00:31:49;;;;;;;16.80;16.00;;;13.40;1.00;;;;;;5093195;28;20450;-80
2023/10/24 00:34:17;;;;;;;16.83;16.10;;;13.40;1.00;;;;;;5108677;27;20446;-79
2023/10/24 00:36:46;;;;;;;16.43;15.73;;;13.40;1.00;;;;;;5093455;28;20464;-78
2023/10/24 00:39:15;;;;;;;16.57;15.57;;;13.40;1.00;;;;;;5091378;28;20485;-79
2023/10/24 00:41:43;;;;;;;15.53;14.90;;;13.40;1.00;;;;;;5090102;28;20475;-81
2023/10/24 00:44:11;;;;;;;16.33;15.50;;;13.40;1.00;;;;;;5091404;28;20446;-78
2023/10/24 00:46:40;;;;;;;15.97;15.17;;;13.40;1.00;;;;;;5090785;28;20957;-79
2023/10/24 00:49:11;;;;;;;15.67;14.87;;;13.40;1.00;;;;;;5095611;28;21042;-80
2023/10/24 00:51:40;;;;;;;15.13;14.50;;;13.30;1.00;;;;;;5091903;28;20461;-79
2023/10/24 00:54:10;;;;;;;15.80;14.90;;;13.40;1.00;;;;;;5091834;28;20449;-78
2023/10/24 00:56:40;;;;;;;15.90;15.20;;;13.40;1.00;;;;;;5090763;28;20538;-78
2023/10/24 00:59:09;;;;;;;16.07;15.37;;;13.30;1.00;;;;;;5093137;28;20483;-79
2023/10/24 01:01:37;;;;;;;16.30;15.57;;;13.30;1.00;;;;;;5088568;28;20481;-81
2023/10/24 01:04:06;;;;;;;15.50;14.50;;;13.30;1.00;;;;;;5092964;28;20520;-81
2023/10/24 01:06:37;;;;;;;14.73;14.03;;;13.30;1.00;;;;;;5092832;28;20522;-80
2023/10/24 01:09:05;;;;;;;15.47;14.70;;;13.40;99.90;;;;;;5093469;28;20531;-82
2023/10/24 01:11:34;;;;;;;15.07;14.27;;;13.40;99.90;;;;;;5091469;28;20449;-81
2023/10/24 01:14:02;;;;;;;14.83;14.13;;;13.30;99.90;;;;;;5095223;28;20462;-79
2023/10/24 01:16:33;;;;;;;15.60;14.60;;;13.40;99.90;;;;;;5091540;28;20571;-80
2023/10/24 01:19:02;;;;;;;15.00;14.40;;;13.30;99.90;;;;;;5092811;28;20445;-82
2023/10/24 01:21:30;;;;;;;15.43;14.53;;;13.40;99.90;;;;;;5094063;28;20483;-82
2023/10/24 01:24:00;;;;;;;15.13;14.53;;;13.40;99.40;;;;;;5092206;28;20454;-81
2023/10/24 01:26:28;;;;;;;14.37;13.87;;;13.50;29.10;;;;;;5090461;28;20469;-79
2023/10/24 01:28:57;;;;;;;14.57;13.97;;;13.50;92.90;;;;;;5088252;28;20454;-78
2023/10/24 01:31:25;;;;;;;15.30;14.57;;;13.50;8.00;;;;;;5092994;28;20519;-80
2023/10/24 01:33:53;;;;;;;15.60;14.90;;;13.60;1.00;;;;;;5092680;28;20450;-80
2023/10/24 01:36:22;;;;;;;14.17;13.63;;;13.50;91.00;;;;;;5090108;28;20462;-83
2023/10/24 01:38:50;;;;;;;14.47;13.90;;;13.50;99.90;;;;;;5094340;28;20457;-80
2023/10/24 01:41:20;;;;;;;14.83;14.23;;;13.60;99.90;;;;;;5092851;28;21183;-80
2023/10/24 01:43:48;;;;;;;14.83;14.23;;;13.60;78.10;;;;;;5092497;28;20454;-79
2023/10/24 01:46:17;;;;;;;14.77;14.00;;;13.50;99.90;;;;;;5088473;28;20489;-81
2023/10/24 01:48:45;;;;;;;16.03;15.20;;;13.50;84.70;;;;;;5089016;28;20460;-80
2023/10/24 01:51:14;;;;;;;15.07;14.47;;;13.60;99.90;;;;;;5088364;28;20978;-81
2023/10/24 01:53:42;;;;;;;15.20;14.30;;;13.60;99.90;;;;;;5092079;28;20461;-78
2023/10/24 01:56:11;;;;;;;14.80;14.10;;;13.50;99.90;;;;;;5092145;28;20522;-79
2023/10/24 01:58:41;;;;;;;14.43;13.80;;;13.60;99.90;;;;;;5093500;28;20446;-79
2023/10/24 02:01:11;;;;;;;15.10;14.50;;;13.50;99.90;;;;;;5092952;28;20456;-80
2023/10/24 02:03:39;;;;;;;16.17;15.40;;;13.50;99.90;;;;;;5090670;28;20947;-78
2023/10/24 02:06:07;;;;;;;15.87;15.20;;;13.50;99.90;;;;;;5088683;28;20480;-80
2023/10/24 02:08:36;;;;;;;16.50;15.70;;;13.50;99.90;;;;;;5089764;28;20580;-79
2023/10/24 02:11:04;;;;;;;15.70;15.20;;;13.50;99.90;;;;;;5092065;28;20576;-79
2023/10/24 02:13:32;;;;;;;16.30;15.53;;;13.50;99.90;;;;;;5089715;28;20521;-81
2023/10/24 02:16:02;;;;;;;15.47;14.80;;;13.50;99.90;;;;;;5092013;28;20476;-82
2023/10/24 02:18:30;;;;;;;15.67;14.97;;;13.50;77.90;;;;;;5090344;28;20457;-80
2023/10/24 02:20:58;;;;;;;15.90;15.20;;;13.50;74.70;;;;;;5088791;28;20485;-81
2023/10/24 02:23:26;;;;;;;14.50;13.70;;;13.60;1.00;;;;;;5088356;28;20478;-81
2023/10/24 02:25:54;;;;;;;16.03;15.43;;;13.50;1.00;;;;;;5088597;28;20473;-80
2023/10/24 02:28:22;;;;;;;15.47;14.57;;;13.60;1.00;;;;;;5093760;28;20449;-80
2023/10/24 02:30:50;;;;;;;15.07;14.50;;;13.50;1.00;;;;;;5090836;28;20504;-81
2023/10/24 02:33:20;;;;;;;14.57;13.93;;;13.60;1.00;;;;;;5094996;28;20966;-81
2023/10/24 02:35:48;;;;;;;14.53;14.03;;;13.60;1.00;;;;;;5090527;28;20481;-82
2023/10/24 02:38:17;;;;;;;15.30;14.60;;;13.60;1.00;;;;;;5091564;28;20458;-81
2023/10/24 02:40:52;;;;;;;15.07;14.27;;;13.70;1.00;;;;;;5090527;28;20531;-79
2023/10/24 02:43:20;;;;;;;15.27;14.67;;;13.70;1.00;;;;;;5093254;28;20460;-81
2023/10/24 02:45:48;;;;;;;15.07;14.37;;;13.70;1.00;;;;;;5091994;28;20474;-81
2023/10/24 02:48:17;;;;;;;15.13;14.63;;;13.70;1.00;;;;;;5091234;28;20446;-82
2023/10/24 02:50:52;;;;;;;15.20;14.60;;;13.70;1.00;;;;;;5089538;28;20613;-79
2023/10/24 02:53:20;;;;;;;16.80;16.00;;;13.70;1.00;;;;;;5087541;28;20452;-81
2023/10/24 02:55:49;;;;;;;15.27;14.57;;;13.70;1.00;;;;;;5090164;28;20560;-80
2023/10/24 02:58:18;;;;;;;15.40;14.80;;;13.70;1.00;;;;;;5092736;28;20543;-79
2023/10/24 03:00:47;;;;;;;15.40;14.63;;;13.60;1.00;;;;;;5093837;28;20454;-79
2023/10/24 03:03:15;;;;;;;15.60;14.77;;;13.60;1.00;;;;;;5091892;28;21422;-81
2023/10/24 03:05:43;;;;;;;14.80;14.20;;;13.70;1.00;;;;;;5092378;28;20511;-80
2023/10/24 03:08:13;;;;;;;14.80;14.20;;;13.70;1.00;;;;;;5093026;28;20463;-80
2023/10/24 03:10:42;;;;;;;14.77;14.20;;;13.80;1.00;;;;;;5091729;28;20454;-81
2023/10/24 03:13:10;;;;;;;14.50;13.90;;;13.80;1.00;;;;;;5096862;28;20458;-79
2023/10/24 03:15:39;;;;;;;14.63;14.03;;;13.80;1.00;;;;;;5094713;28;20832;-81
2023/10/24 03:18:07;;;;;;;14.33;13.83;;;13.80;1.00;;;;;;5093534;28;20451;-80
2023/10/24 03:20:39;;;;;;;15.00;14.50;;;13.80;1.00;;;;;;5092863;28;20460;-80
2023/10/24 03:23:09;;;;;;;15.37;14.77;;;13.80;1.00;;;;;;5096703;28;20485;-81
2023/10/24 03:25:42;;;;;;;14.77;14.27;;;13.80;1.00;;;;;;5096274;28;20887;-79
2023/10/24 03:28:10;;;;;;;14.17;13.67;;;13.80;1.00;;;;;;5094464;28;20441;-79
2023/10/24 03:30:39;;;;;;;14.43;13.83;;;13.80;1.00;;;;;;5094077;28;20810;-78
2023/10/24 03:33:07;;;;;;;14.87;14.37;;;13.80;1.00;;;;;;5095514;28;20453;-79
2023/10/24 03:35:36;;;;;;;15.17;14.67;;;13.80;38.00;;;;;;5092113;28;20493;-80
2023/10/24 03:38:05;;;;;;;14.93;14.47;;;13.80;99.90;;;;;;5099825;28;20455;-80
2023/10/24 03:40:33;;;;;;;14.93;14.40;;;13.80;99.90;;;;;;5098079;28;20453;-83
2023/10/24 03:43:03;;;;;;;15.00;14.50;;;13.70;99.90;;;;;;5097387;28;20561;-83
2023/10/24 03:45:31;;;;;;;15.60;14.80;;;13.70;99.90;;;;;;5103722;28;20498;-82
2023/10/24 03:47:59;;;;;;;15.40;14.77;;;13.70;1.00;;;;;;5104902;28;20453;-82
2023/10/24 03:50:28;;;;;;;14.43;14.03;;;13.70;1.00;;;;;;5100467;28;20449;-82
2023/10/24 03:52:56;;;;;;;15.07;14.47;;;13.80;99.90;;;;;;5099392;28;20453;-82
2023/10/24 03:55:24;;;;;;;14.57;14.10;;;13.80;99.90;;;;;;5106458;28;20515;-81
2023/10/24 03:57:53;;;;;;;15.30;14.70;;;13.80;99.90;;;;;;5107974;28;20498;-82
2023/10/24 04:00:23;;;;;;;14.90;14.40;;;13.80;99.90;;;;;;5098714;28;20790;-83
2023/10/24 04:02:52;;;;;;;14.70;14.00;;;13.90;99.90;;;;;;5101829;28;20465;-82
2023/10/24 04:05:20;;;;;;;14.37;13.87;;;13.80;99.90;;;;;;5099129;28;20492;-83
2023/10/24 04:07:49;;;;;;;14.67;14.27;;;13.80;99.90;;;;;;5096990;28;21332;-81
2023/10/24 04:10:18;;;;;;;14.83;14.30;;;13.80;99.90;;;;;;5094143;28;21099;-81
2023/10/24 04:12:46;;;;;;;15.20;14.33;;;13.80;1.00;;;;;;5095541;28;20446;-80
2023/10/24 04:15:14;;;;;;;14.57;14.17;;;13.90;99.90;;;;;;5097517;28;20482;-81
2023/10/24 04:17:44;;;;;;;15.43;14.70;;;14.00;99.90;;;;;;5095748;28;20567;-81
2023/10/24 04:20:12;;;;;;;14.60;14.10;;;14.00;99.90;;;;;;5096270;28;20457;-80
2023/10/24 04:22:44;;;;;;;15.30;14.70;;;14.00;99.90;;;;;;5095999;28;20961;-81
2023/10/24 04:25:12;;;;;;;15.13;14.43;;;14.00;2.20;;;;;;5098774;28;20481;-81
2023/10/24 04:27:40;;;;;;;16.77;16.03;;;14.00;7.90;;;;;;5097578;28;20545;-79
2023/10/24 04:30:10;;;;;;;15.37;14.77;;;14.00;1.00;;;;;;5098692;28;20441;-80
2023/10/24 04:32:39;;;;;;;18.20;17.40;;;14.00;12.60;;;;;;5103235;27;20483;-83
2023/10/24 04:35:09;;;;;;;17.70;16.70;;;14.00;51.20;;;;;;5097438;28;20480;-81
2023/10/24 04:37:37;;;;;;;15.50;15.00;;;14.00;38.20;;;;;;5099934;28;20452;-80
2023/10/24 04:40:07;;;;;;;15.07;14.47;;;14.00;38.60;;;;;;5098812;28;20462;-80
2023/10/24 04:42:35;;;;;;;15.33;14.67;;;14.00;9.00;;;;;;5092042;28;20462;-80
2023/10/24 04:45:04;;;;;;;14.90;14.20;;;14.00;1.00;;;;;;5089060;28;20472;-80
2023/10/24 04:47:32;;;;;;;14.30;13.80;;;14.00;12.20;;;;;;5095963;28;20458;-80
2023/10/24 04:50:00;;;;;;;15.27;14.67;;;14.00;1.00;;;;;;5094635;28;20458;-80
2023/10/24 04:52:30;;;;;;;14.70;14.17;;;14.00;26.30;;;;;;5093182;28;20462;-80
2023/10/24 04:54:58;;;;;;;19.17;18.07;;;14.00;3.50;;;;;;5086958;28;20506;-79
2023/10/24 04:57:26;;;;;;;21.30;20.10;;;14.00;1.00;;;;;;5094707;28;20461;-81
2023/10/24 04:59:54;;;;;;;18.80;17.90;;;14.00;1.00;;;;;;5092852;28;20461;-80
2023/10/24 05:02:22;;;;;;;15.20;14.73;;;14.10;1.00;;;;;;5093073;28;20517;-80
2023/10/24 05:04:50;;;;;;;15.93;15.33;;;14.10;1.00;;;;;;5091064;27;20488;-80
2023/10/24 05:07:19;;;;;;;16.67;15.97;;;14.10;1.00;;;;;;5094222;28;21100;-80
2023/10/24 05:09:50;;;;;;;14.93;14.13;;;14.10;1.00;;;;;;5093055;28;20461;-82
2023/10/24 05:12:18;;;;;;;13.93;13.63;;;14.10;1.00;;;;;;5092723;28;20539;-82
2023/10/24 05:14:46;;;;;;;14.80;14.30;;;14.10;1.00;;;;;;5095419;28;20496;-81
2023/10/24 05:17:14;;;;;;;14.90;14.30;;;14.10;1.00;;;;;;5093341;28;20465;-80
2023/10/24 05:19:43;;;;;;;15.17;14.20;;;14.00;1.00;;;;;;5096522;28;20470;-80
2023/10/24 05:22:12;;;;;;;14.70;14.20;;;14.00;7.10;;;;;;5101267;28;21049;-81
2023/10/24 05:24:41;;;;;;;17.23;16.60;;;14.10;13.00;;;;;;5094889;28;20469;-80
2023/10/24 05:27:10;;;;;;;18.83;17.93;;;14.10;81.50;;;;;;5097033;28;20860;-81
2023/10/24 05:29:39;;;;;;;18.83;17.73;;;14.00;99.90;;;;;;5096382;28;20449;-80
2023/10/24 05:32:07;;;;;;;16.93;16.17;;;14.00;99.90;;;;;;5097190;28;20885;-80
2023/10/24 05:34:35;;;;;;;16.20;15.40;;;14.00;1.00;;;;;;5088397;28;20473;-80
2023/10/24 05:37:04;;;;;;;16.13;15.53;;;14.00;1.00;;;;;;5096993;28;20522;-81
2023/10/24 05:39:32;;;;;;;15.60;15.10;;;14.00;1.00;;;;;;5094994;28;20495;-80
2023/10/24 05:42:00;;;;;;;14.97;14.37;;;13.90;99.90;;;;;;5096019;28;20897;-82
2023/10/24 05:44:30;;;;;;;14.90;14.40;;;13.90;99.90;;;;;;5091705;28;20469;-81
2023/10/24 05:46:58;;;;;;;14.53;14.00;;;13.90;85.90;;;;;;5092492;28;20445;-80
2023/10/24 05:49:27;;;;;;;15.27;14.47;;;13.90;90.60;;;;;;5092198;27;20631;-80
2023/10/24 05:51:55;;;;;;;15.90;15.30;;;14.00;99.90;;;;;;5094174;28;20466;-80
2023/10/24 05:54:23;;;;;;;14.70;14.20;;;14.00;99.90;;;;;;5094869;28;20469;-81
2023/10/24 05:56:51;;;;;;;15.03;14.57;;;14.00;99.90;;;;;;5093728;28;20461;-81
2023/10/24 05:59:20;;;;;;;14.97;14.57;;;14.10;99.90;;;;;;5092039;28;20460;-81
2023/10/24 06:01:49;;;;;;;14.83;14.43;;;14.10;63.00;;;;;;5091273;28;20473;-81
2023/10/24 06:04:18;;;;;;;16.07;15.37;;;14.10;55.60;;;;;;5092537;28;20478;-81
2023/10/24 06:06:46;;;;;;;17.30;16.47;;;14.20;58.70;;;;;;5091623;28;20453;-80
2023/10/24 06:09:14;;;;;;;16.07;15.47;;;14.20;1.00;;;;;;5095181;28;20452;-80
2023/10/24 06:11:42;;;;;;;16.30;15.50;;;14.20;1.00;;;;;;5093549;28;20981;-81
2023/10/24 06:14:10;;;;;;;18.93;17.83;;;14.20;1.00;;;;;;5094495;28;20468;-80
2023/10/24 06:16:39;;;;;;;19.37;18.10;;;14.30;1.00;;;;;;5088734;28;20571;-81
2023/10/24 06:19:08;;;;;;;22.00;20.50;;;14.30;1.00;;;;;;5093175;28;22836;-81
2023/10/24 06:21:36;;;;;;;20.17;18.93;;;14.30;1.00;;;;;;5093662;28;20454;-80
2023/10/24 06:24:05;;;;;;;21.93;20.40;;;14.30;1.00;;;;;;5093340;28;20594;-81
2023/10/24 06:26:33;;;;;;;15.47;14.97;;;14.30;1.00;;;;;;5092335;28;20468;-80
2023/10/24 06:29:02;;;;;;;17.90;16.90;;;14.30;1.00;;;;;;5092008;28;20493;-81
2023/10/24 06:31:30;;;;;;;18.50;17.60;;;14.30;1.00;;;;;;5092967;28;20458;-81
2023/10/24 06:33:59;;;;;;;15.50;14.90;;;14.20;1.00;;;;;;5097338;28;20491;-81
2023/10/24 06:36:29;;;;;;;15.20;14.80;;;14.30;1.00;;;;;;5093887;28;20477;-81
2023/10/24 06:38:57;;;;;;;15.93;15.33;;;14.30;1.00;;;;;;5095361;28;20549;-80
2023/10/24 06:41:26;;;;;;;18.33;17.50;;;14.20;99.90;;;;;;5095354;28;20967;-80
2023/10/24 06:43:54;;;;;;;26.30;24.07;;;14.20;99.90;;;;;;5097289;28;20463;-82
2023/10/24 06:46:23;;;;;;;15.93;15.23;;;14.10;99.90;;;;;;5095344;28;20501;-81
2023/10/24 06:48:53;;;;;;;15.80;15.10;;;14.10;99.90;;;;;;5095158;28;20449;-80
2023/10/24 06:51:21;;;;;;;14.70;14.30;;;14.10;1.00;;;;;;5095907;28;20499;-81
2023/10/24 06:53:51;;;;;;;15.90;15.13;;;14.10;99.90;;;;;;5096514;28;20445;-80
2023/10/24 06:56:19;;;;;;;15.10;14.50;;;14.20;1.00;;;;;;5092978;28;20464;-81
2023/10/24 06:58:49;;;;;;;16.50;15.80;;;14.10;99.90;;;;;;5097575;28;21178;-80
2023/10/24 07:01:17;;;;;;;19.43;18.60;;;14.10;99.90;;;;;;5095679;28;20465;-81
2023/10/24 07:03:45;;;;;;;15.07;14.47;;;14.10;99.90;;;;;;5095311;28;20470;-80
2023/10/24 07:06:14;;;;;;;16.33;15.10;;;14.10;99.90;;;;;;5092708;28;20497;-80
2023/10/24 07:08:42;;;;;;;16.60;16.00;;;14.10;39.30;;;;;;5096329;28;20614;-81
2023/10/24 07:11:12;;;;;;;16.53;15.93;;;14.10;99.90;;;;;;5093622;28;20460;-81
2023/10/24 07:13:40;;;;;;;18.50;17.70;;;14.10;99.90;;;;;;5095680;28;20496;-80
2023/10/24 07:16:14;;;;;;;17.50;16.50;;;14.10;16.00;;;;;;5096228;28;21089;-80
2023/10/24 07:18:42;;;;;;;16.30;15.60;;;14.10;1.00;;;;;;5090450;28;20916;-83
2023/10/24 07:21:11;;;;;;;16.47;15.77;;;14.00;99.90;;;;;;5096496;28;20490;-81
2023/10/24 07:23:39;;;;;;;16.30;15.67;;;14.00;99.90;;;;;;5093679;28;20485;-81
2023/10/24 07:26:08;;;;;;;16.90;16.13;;;14.00;1.00;;;;;;5095429;28;20892;-81
2023/10/24 07:28:37;;;;;;;16.30;15.50;;;14.00;99.90;;;;;;5097450;27;22199;-81
2023/10/24 07:31:06;;;;;;;16.07;15.50;;;14.00;1.00;;;;;;5096072;28;21023;-81
2023/10/24 07:33:34;;;;;;;16.20;15.70;;;14.10;99.90;;;;;;5096387;28;20456;-81
2023/10/24 07:36:06;;;;;;;17.30;16.70;;;14.10;93.20;;;;;;5095964;28;21013;-81
2023/10/24 07:38:35;;;;;;;16.77;16.17;;;14.00;1.00;;;;;;5097614;28;20499;-82
2023/10/24 07:41:03;;;;;;;16.90;15.90;;;14.00;60.50;;;;;;5096226;28;20955;-81
2023/10/24 07:43:32;;;;;;;16.90;16.40;;;14.00;99.90;;;;;;5096966;28;20458;-81
2023/10/24 07:46:02;;;;;;;16.73;16.00;;;14.00;99.90;;;;;;5094381;28;20526;-82
2023/10/24 07:48:39;;;;;;;16.73;16.13;;;14.00;1.00;;;;;;5096461;28;20453;-82
2023/10/24 07:51:10;;;;;;;17.10;16.20;;;14.00;1.00;;;;;;5092506;28;20446;-81
2023/10/24 07:53:39;;;;;;;17.50;16.77;;;14.00;99.90;;;;;;5094941;28;20449;-81
2023/10/24 07:56:07;;;;;;;17.63;16.93;;;14.00;99.90;;;;;;5090241;28;21096;-81
2023/10/24 07:58:36;;;;;;;17.87;16.83;;;14.00;1.00;;;;;;5097946;28;20560;-81
2023/10/24 08:01:06;;;;;;;18.10;17.17;;;14.00;77.10;;;;;;5092998;28;20454;-83
2023/10/24 08:03:34;;;;;;;17.20;16.50;;;13.90;99.90;;;;;;5093608;28;20861;-81
2023/10/24 08:06:04;;;;;;;17.13;16.40;;;13.90;1.00;;;;;;5093904;28;20517;-82
2023/10/24 08:08:32;;;;;;;17.43;16.63;;;14.00;1.00;;;;;;5093127;28;20462;-82
2023/10/24 08:11:00;;;;;;;17.70;17.00;;;13.90;99.90;;;;;;5089572;28;20454;-82
2023/10/24 08:13:28;;;;;;;18.10;17.30;;;14.00;1.00;;;;;;5092316;28;20455;-83
2023/10/24 08:15:58;;;;;;;17.57;16.77;;;13.90;99.90;;;;;;5094429;28;20473;-82
2023/10/24 08:18:28;;;;;;;17.87;17.00;;;13.90;1.00;;;;;;5092717;28;20446;-82
2023/10/24 08:20:56;;;;;;;17.70;16.90;;;14.00;1.00;;;;;;5100687;28;20486;-82
2023/10/24 08:23:25;;;;;;;18.93;18.10;;;14.00;99.90;;;;;;5092733;28;20461;-81
2023/10/24 08:25:54;;;;;;;17.50;16.90;;;14.00;99.90;;;;;;5091369;28;20970;-82
2023/10/24 08:28:22;;;;;;;18.07;17.07;;;14.00;1.00;;;;;;5097477;27;20446;-81
2023/10/24 08:30:50;;;;;;;18.57;17.37;;;14.00;1.00;;;;;;5096148;28;20457;-81
2023/10/24 08:33:20;;;;;;;18.67;17.60;;;14.00;99.90;;;;;;5088940;28;20461;-81
2023/10/24 08:35:50;;;;;;;19.60;18.53;;;14.00;1.00;;;;;;5093280;28;20484;-82
2023/10/24 08:38:18;;;;;;;19.40;18.33;;;14.00;1.00;;;;;;5094487;28;20466;-81
2023/10/24 08:40:49;;;;;;;18.37;17.47;;;13.90;1.00;;;;;;5093562;28;20623;-82
2023/10/24 08:43:20;;;;;;;18.67;17.87;;;13.90;1.00;;;;;;5096206;28;20450;-82
2023/10/24 08:45:50;;;;;;;19.30;17.87;;;13.90;90.60;;;;;;5098044;28;20482;-82
2023/10/24 08:48:19;;;;;;;18.23;17.43;;;13.90;99.90;;;;;;5093425;28;20450;-82
2023/10/24 08:50:48;;;;;;;18.13;17.43;;;13.90;99.90;;;;;;5099434;27;20519;-81
2023/10/24 08:53:18;;;;;;;17.63;16.83;;;13.90;1.00;;;;;;5093231;28;20461;-81
2023/10/24 08:55:51;;;;;;;18.37;17.57;;;13.80;1.00;;;;;;5094455;27;20484;-81
2023/10/24 08:58:21;;;;;;;17.70;17.00;;;13.80;99.90;;;;;;5098075;28;20962;-80
2023/10/24 09:00:51;;;;;;;18.27;17.10;;;13.80;1.00;;;;;;5094131;28;20462;-80
2023/10/24 09:03:19;;;;;;;18.27;17.57;;;13.80;1.00;;;;;;5098001;28;20446;-82
2023/10/24 09:05:48;;;;;;;18.00;17.30;;;13.90;1.00;;;;;;5095108;28;20490;-81
2023/10/24 09:08:18;;;;;;;18.13;17.43;;;13.90;1.00;;;;;;5094757;28;20445;-82
2023/10/24 09:10:50;;;;;;;17.90;17.10;;;13.90;1.00;;;;;;5098449;28;20450;-83
2023/10/24 09:13:19;;;;;;;19.00;18.10;;;13.90;1.00;;;;;;5094506;28;20452;-81
2023/10/24 09:16:06;;;;;;;19.30;18.33;;;13.90;1.00;;;;;;5099932;28;20851;-81
2023/10/24 09:18:36;;;;;;;18.60;17.90;;;13.80;99.90;;;;;;5097936;28;20449;-81
2023/10/24 09:21:07;;;;;;;18.27;17.40;;;13.90;99.90;;;;;;5097121;28;20461;-81
2023/10/24 09:23:37;;;;;;;18.37;17.40;;;13.90;99.90;;;;;;5097213;28;20942;-82
2023/10/24 09:26:08;;;;;;;17.97;17.27;;;13.90;99.90;;;;;;5097602;28;20480;-82
2023/10/24 09:28:37;;;;;;;17.77;17.00;;;14.00;99.90;;;;;;5095100;28;20464;-82
2023/10/24 09:31:07;;;;;;;17.00;16.30;;;14.00;99.90;;;;;;5096313;28;20465;-80
2023/10/24 09:33:36;;;;;;;17.63;16.87;;;14.00;99.90;;;;;;5094841;28;20986;-81
2023/10/24 09:36:05;;;;;;;16.73;16.13;;;14.10;99.90;;;;;;5096168;28;20469;-81
2023/10/24 09:38:42;;;;;;;16.87;16.27;;;14.10;99.90;;;;;;5094197;28;20441;-81
2023/10/24 09:41:11;;;;;;;17.20;16.53;;;14.10;99.90;;;;;;5096434;28;20485;-81
2023/10/24 09:43:46;;;;;;;17.30;16.60;;;14.10;99.90;;;;;;5094918;28;20999;-81
2023/10/24 09:46:18;;;;;;;17.13;16.43;;;14.10;99.90;;;;;;5096974;28;20501;-82
2023/10/24 09:48:47;;;;;;;17.03;16.43;;;14.20;99.90;;;;;;5095657;28;20977;-81
2023/10/24 09:51:19;;;;;;;16.70;15.97;;;14.10;1.00;;;;;;5093709;28;20458;-81
2023/10/24 09:53:49;;;;;;;16.47;15.87;;;14.20;99.90;;;;;;5094973;28;20449;-81
2023/10/24 09:56:20;;;;;;;16.63;16.03;;;14.20;99.90;;;;;;5095298;28;20473;-81
2023/10/24 09:58:50;;;;;;;16.77;16.17;;;14.20;99.90;;;;;;5092251;28;20480;-82
2023/10/24 10:01:19;;;;;;;15.90;15.40;;;14.20;1.00;;;;;;5092796;28;20458;-81
2023/10/24 10:03:50;;;;;;;15.77;15.27;;;14.20;1.00;;;;;;5097035;28;20466;-81
2023/10/24 10:06:19;;;;;;;15.23;14.83;;;14.20;1.00;;;;;;5087141;28;21111;-83
2023/10/24 10:09:13;;;;;;;16.17;15.47;;;14.20;1.00;;;;;;5097778;28;20469;-81
2023/10/24 10:11:43;;;;;;;15.67;15.17;;;14.20;1.00;;;;;;5101720;28;20473;-79
2023/10/24 10:14:18;;;;;;;16.45;15.85;;;14.30;1.00;;;;;;5101402;28;20460;-81
2023/10/24 10:16:54;;;;;;;15.93;15.43;;;14.10;1.00;;;;;;5101745;28;20191;-81
2023/10/24 10:19:44;;;;;;;15.70;15.20;;;14.20;1.00;;;;;;5103827;28;20461;-81
2023/10/24 10:22:35;;;;;;;15.47;14.97;;;14.30;1.00;;;;;;5103616;28;20468;-81
2023/10/24 10:25:32;;;;;;;15.60;15.10;;;14.30;1.00;;;;;;5103906;28;20797;-80
2023/10/24 10:28:11;;;;;;;15.43;14.83;;;14.30;1.00;;;;;;5096298;28;20519;-81
2023/10/24 10:30:47;;;;;;;15.43;14.93;;;14.30;1.00;;;;;;5103659;28;20442;-82
2023/10/24 10:33:26;;;;;;;16.10;15.60;;;14.30;1.00;;;;;;5104139;28;20473;-80
2023/10/24 10:35:56;;;;;;;16.37;15.77;;;14.30;1.00;;;;;;5103161;28;20472;-81
2023/10/24 10:38:34;;;;;;;16.23;15.57;;;14.30;1.00;;;;;;5105399;28;20990;-81
2023/10/24 10:41:40;;;;;;;15.60;15.10;;;14.30;1.00;;;;;;5103919;28;20449;-81
2023/10/24 10:44:41;;;;;;;15.87;15.17;;;14.30;1.00;;;;;;5101378;28;20483;-80
2023/10/24 10:47:16;;;;;;;15.80;15.20;;;14.30;1.00;;;;;;5105788;28;20477;-81
2023/10/24 10:49:49;;;;;;;15.70;15.20;;;14.30;1.00;;;;;;5104919;27;20453;-81
2023/10/24 10:52:28;;;;;;;15.60;15.00;;;14.20;1.00;;;;;;5105336;28;20982;-80
2023/10/24 10:55:14;;;;;;;16.30;15.60;;;14.20;1.00;;;;;;5104379;28;20468;-81
2023/10/24 10:58:03;;;;;;;16.00;15.30;;;14.20;1.00;;;;;;5106077;28;20890;-81
2023/10/24 11:00:42;;;;;;;18.17;16.93;;;14.20;1.00;;;;;;5097568;28;20454;-81
2023/10/24 11:03:30;;;;;;;15.93;15.30;;;14.20;1.00;;;;;;5099667;28;20444;-81
2023/10/24 11:06:11;;;;;;;16.30;15.30;;;14.20;1.00;;;;;;5100322;28;20898;-81
2023/10/24 11:08:41;;;;;;;15.33;14.83;;;14.20;1.00;;;;;;5100994;27;20595;-81
2023/10/24 11:11:10;;;;;;;15.60;15.00;;;14.20;1.00;;;;;;5101678;28;20456;-82
2023/10/24 11:13:43;;;;;;;16.20;15.60;;;14.20;1.00;;;;;;5099035;28;20446;-81
2023/10/24 11:16:12;;;;;;;16.20;15.60;;;14.20;1.00;;;;;;5100199;28;20918;-81
2023/10/24 11:19:00;;;;;;;16.03;15.43;;;14.20;1.00;;;;;;5103158;28;20449;-82
2023/10/24 11:21:29;;;;;;;19.20;18.27;;;14.10;1.00;;;;;;5099447;28;20450;-81
2023/10/24 11:24:00;;;;;;;18.30;17.40;;;14.10;1.00;;;;;;5101468;28;20557;-81
2023/10/24 11:26:28;;;;;;;21.37;20.07;;;14.10;1.00;;;;;;5107352;27;20480;-82
2023/10/24 11:28:58;;;;;;;19.53;18.30;;;14.10;1.00;;;;;;5099814;28;20444;-82
2023/10/24 11:31:27;;;;;;;16.83;16.23;;;14.10;1.00;;;;;;5097671;28;20458;-81
2023/10/24 11:33:57;;;;;;;15.90;15.50;;;14.10;1.00;;;;;;5103924;28;20526;-82
2023/10/24 11:36:27;;;;;;;15.80;15.20;;;14.20;1.00;;;;;;5101139;28;20514;-82
2023/10/24 11:38:58;;;;;;;16.23;15.63;;;14.20;1.00;;;;;;5094974;28;20457;-82
2023/10/24 11:41:28;;;;;;;15.73;15.17;;;14.20;1.00;;;;;;5095366;28;20971;-82
2023/10/24 11:43:58;;;;;;;15.80;15.30;;;14.20;1.00;;;;;;5097891;28;20521;-81
2023/10/24 11:46:26;;;;;;;15.77;15.27;;;14.20;1.00;;;;;;5099639;28;20497;-82
2023/10/24 11:48:55;;;;;;;16.20;15.60;;;14.20;1.00;;;;;;5096052;28;20442;-82
2023/10/24 11:51:23;;;;;;;15.90;15.30;;;14.20;1.00;;;;;;5095480;28;20566;-82
2023/10/24 11:54:01;;;;;;;16.10;15.60;;;14.20;1.00;;;;;;5096401;28;20470;-82
2023/10/24 11:56:30;;;;;;;16.17;15.60;;;14.20;1.00;;;;;;5095157;28;20472;-81
2023/10/24 11:59:02;;;;;;;16.40;15.70;;;14.10;1.00;;;;;;5097077;28;20458;-82
2023/10/24 12:01:32;;;;;;;18.83;17.80;;;14.10;1.00;;;;;;5096136;28;21289;-81
2023/10/24 12:04:03;;;;;;;16.57;16.07;;;14.10;1.00;;;;;;5095583;28;20466;-81
2023/10/24 12:06:32;;;;;;;16.60;15.80;;;14.10;1.00;;;;;;5093040;28;20576;-82
2023/10/24 12:09:01;;;;;;;19.70;18.70;;;14.10;1.00;;;;;;5099332;28;20477;-81
2023/10/24 12:11:29;;;;;;;23.07;21.47;;;14.10;1.00;;;;;;5099043;28;21136;-81
2023/10/24 12:14:01;;;;;;;18.03;17.23;;;14.20;1.00;;;;;;5099809;28;20446;-81
2023/10/24 12:16:30;;;;;;;17.50;16.50;;;14.20;1.00;;;;;;5099982;28;20570;-80
2023/10/24 12:19:14;;;;;;;16.30;15.80;;;14.20;1.00;;;;;;5098896;28;20521;-80
2023/10/24 12:21:43;;;;;;;16.63;15.93;;;14.20;1.00;;;;;;5100994;28;21054;-81
2023/10/24 12:24:12;;;;;;;16.30;15.80;;;14.20;1.00;;;;;;5097814;28;20454;-81
2023/10/24 12:26:41;;;;;;;16.60;16.00;;;14.20;1.00;;;;;;5098036;28;20489;-81
2023/10/24 12:29:10;;;;;;;16.77;16.17;;;14.20;1.00;;;;;;5095963;28;21046;-81
2023/10/24 12:31:40;;;;;;;16.30;15.63;;;14.20;1.00;;;;;;5100583;28;20475;-80
2023/10/24 12:34:09;;;;;;;16.67;16.07;;;14.20;1.00;;;;;;5092943;27;20449;-81
2023/10/24 12:36:38;;;;;;;16.23;15.70;;;14.20;1.00;;;;;;5092565;28;20694;-83
2023/10/24 12:39:07;;;;;;;15.87;15.37;;;14.10;1.00;;;;;;5091283;28;20480;-82
2023/10/24 12:41:35;;;;;;;16.27;15.67;;;14.20;1.00;;;;;;5091029;28;20466;-81
2023/10/24 12:44:04;;;;;;;16.10;15.40;;;14.20;1.00;;;;;;5097314;28;20472;-82
2023/10/24 12:46:35;;;;;;;16.03;15.53;;;14.20;1.00;;;;;;5099566;28;20469;-83
2023/10/24 12:49:04;;;;;;;16.70;16.10;;;14.20;1.00;;;;;;5095361;28;20473;-82